Time;durP1;ratioP1;P1;durP2;ratioP2;P2;SDS_P1;SDS_P2;PMS_P1;PMS_P2;Temp;Humidity;BMP_temperature;BMP_pressure;BME280_temperature;BME280_humidity;BME280_pressure;Samples;Min_cycle;Max_cycle;Signal;HPM_P1;HPM_P2
2023/02/11 00:02:14;;;;;;;1.60;1.60;;;7.10;99.90;;;;;;5018838;28;20181;-83
2023/02/11 00:04:40;;;;;;;0.80;0.80;;;7.20;99.90;;;;;;5018377;28;20622;-80
2023/02/11 00:07:06;;;;;;;1.33;1.23;;;7.20;99.90;;;;;;5017030;28;20181;-87
2023/02/11 00:09:31;;;;;;;5.93;1.50;;;7.20;99.90;;;;;;5068091;28;20181;-82
2023/02/11 00:11:57;;;;;;;2.10;1.70;;;7.20;99.90;;;;;;5033468;28;20631;-81
2023/02/11 00:14:23;;;;;;;1.93;1.57;;;7.20;99.90;;;;;;5033238;28;20192;-80
2023/02/11 00:16:49;;;;;;;6.57;2.93;;;7.20;99.90;;;;;;5049223;28;20213;-81
2023/02/11 00:19:14;;;;;;;1.83;1.33;;;7.20;99.90;;;;;;5049964;28;20181;-85
2023/02/11 00:21:40;;;;;;;3.40;2.20;;;7.30;99.90;;;;;;5033449;28;20177;-81
2023/02/11 00:24:06;;;;;;;2.87;2.60;;;7.30;99.90;;;;;;5051272;28;20174;-80
2023/02/11 00:26:33;;;;;;;2.37;2.23;;;7.30;99.90;;;;;;5035382;28;20186;-85
2023/02/11 00:29:00;;;;;;;7.50;2.27;;;7.30;99.90;;;;;;5069873;28;20188;-80
2023/02/11 00:31:26;;;;;;;4.37;1.70;;;7.40;99.90;;;;;;5069457;28;20180;-80
2023/02/11 00:33:53;;;;;;;5.80;1.20;;;7.40;99.90;;;;;;5051780;28;20763;-83
2023/02/11 00:36:24;;;;;;;2.87;1.70;;;7.40;99.90;;;;;;5069563;28;20205;-79
2023/02/11 00:38:52;;;;;;;3.90;2.00;;;7.40;99.90;;;;;;5050630;28;20170;-82
2023/02/11 00:41:19;;;;;;;2.33;2.07;;;7.40;99.90;;;;;;5033445;28;20177;-81
2023/02/11 00:43:44;;;;;;;6.43;3.27;;;7.40;99.90;;;;;;5067387;28;20733;-84
2023/02/11 00:46:13;;;;;;;3.53;2.70;;;7.40;99.90;;;;;;5049743;28;20181;-79
2023/02/11 00:48:39;;;;;;;4.30;3.93;;;7.40;99.90;;;;;;5067702;28;20400;-85
2023/02/11 00:51:06;;;;;;;4.53;2.40;;;7.40;99.90;;;;;;5049795;28;20181;-82
2023/02/11 00:53:32;;;;;;;2.10;1.10;;;7.50;99.90;;;;;;5032699;28;20619;-85
2023/02/11 00:55:59;;;;;;;6.90;2.93;;;7.50;99.90;;;;;;5049983;28;20662;-82
2023/02/11 00:58:26;;;;;;;1.67;1.57;;;7.50;99.90;;;;;;5050411;28;20703;-79
2023/02/11 01:00:53;;;;;;;5.27;1.97;;;7.50;99.90;;;;;;5069002;28;20788;-83
2023/02/11 01:03:18;;;;;;;2.57;2.37;;;7.60;99.90;;;;;;5034810;28;20181;-80
2023/02/11 01:05:45;;;;;;;12.00;2.27;;;7.50;99.90;;;;;;5018701;28;20631;-81
2023/02/11 01:08:11;;;;;;;2.60;2.27;;;7.60;99.90;;;;;;5051161;28;20653;-82
2023/02/11 01:10:36;;;;;;;3.00;2.70;;;7.50;99.90;;;;;;5051479;28;20174;-80
2023/02/11 01:13:03;;;;;;;3.90;2.47;;;7.60;99.90;;;;;;5034615;28;20255;-80
2023/02/11 01:15:29;;;;;;;7.83;1.20;;;7.50;99.90;;;;;;5069024;28;20225;-83
2023/02/11 01:17:54;;;;;;;0.97;0.90;;;7.50;99.90;;;;;;5035071;28;20248;-80
2023/02/11 01:20:23;;;;;;;3.73;1.70;;;7.50;99.90;;;;;;5051347;28;20272;-82
2023/02/11 01:22:49;;;;;;;7.73;4.37;;;7.50;99.90;;;;;;5051426;28;20260;-80
2023/02/11 01:25:15;;;;;;;2.50;2.30;;;7.50;99.90;;;;;;5034586;28;20285;-80
2023/02/11 01:27:41;;;;;;;3.57;3.03;;;7.50;99.90;;;;;;5036013;28;20177;-80
2023/02/11 01:30:09;;;;;;;3.57;2.33;;;7.60;99.90;;;;;;5055142;28;20177;-81
2023/02/11 01:32:35;;;;;;;2.17;1.50;;;7.60;99.90;;;;;;5055058;28;20177;-82
2023/02/11 01:35:01;;;;;;;3.23;3.03;;;7.60;99.90;;;;;;5054741;28;20745;-82
2023/02/11 01:37:27;;;;;;;4.60;4.20;;;7.70;99.90;;;;;;5054709;28;20174;-83
2023/02/11 01:39:53;;;;;;;6.07;3.27;;;7.70;99.90;;;;;;5054735;28;20235;-80
2023/02/11 01:42:21;;;;;;;3.00;2.73;;;7.70;99.90;;;;;;5054606;28;20185;-84
2023/02/11 01:44:53;;;;;;;4.17;3.07;;;7.70;99.90;;;;;;5072705;28;20209;-85
2023/02/11 01:47:20;;;;;;;1.87;1.70;;;7.70;99.90;;;;;;5054460;28;20268;-81
2023/02/11 01:49:49;;;;;;;2.47;2.37;;;7.70;99.90;;;;;;5038218;28;20189;-81
2023/02/11 01:52:34;;;;;;;3.70;2.63;;;7.70;99.90;;;;;;5072490;28;20530;-81
2023/02/11 01:57:52;;;;;;;4.77;2.90;;;7.70;99.90;;;;;;5072482;28;20173;-82
2023/02/11 02:00:35;;;;;;;2.13;1.93;;;7.70;99.90;;;;;;5072186;28;20181;-81
2023/02/11 02:03:09;;;;;;;1.87;1.77;;;7.70;99.90;;;;;;5054807;28;20312;-85
2023/02/11 02:05:47;;;;;;;2.40;1.10;;;7.70;99.90;;;;;;5054236;28;20176;-81
2023/02/11 02:08:30;;;;;;;1.87;1.47;;;7.70;99.90;;;;;;5072368;28;20219;-81
2023/02/11 02:10:59;;;;;;;6.23;3.50;;;7.70;99.90;;;;;;5072872;28;20165;-81
2023/02/11 02:13:27;;;;;;;3.93;0.70;;;7.70;99.90;;;;;;5037946;28;20178;-83
2023/02/11 02:15:56;;;;;;;6.70;3.67;;;7.80;99.90;;;;;;5071805;28;20240;-80
2023/02/11 02:18:24;;;;;;;2.20;2.07;;;7.80;99.90;;;;;;5071879;28;20775;-83
2023/02/11 02:21:21;;;;;;;3.53;3.23;;;7.80;99.90;;;;;;5071989;28;20209;-82
2023/02/11 02:24:07;;;;;;;8.60;3.93;;;7.80;99.90;;;;;;5071649;28;20169;-81
2023/02/11 02:26:59;;;;;;;2.43;2.20;;;7.80;99.90;;;;;;5053619;28;20310;-85
2023/02/11 02:30:01;;;;;;;3.97;3.63;;;7.80;99.90;;;;;;5053423;28;20734;-80
2023/02/11 02:32:38;;;;;;;5.23;2.20;;;7.80;99.90;;;;;;5071499;28;20550;-81
2023/02/11 02:35:09;;;;;;;2.10;1.90;;;7.80;99.90;;;;;;5071216;28;20224;-80
2023/02/11 02:37:54;;;;;;;5.37;4.20;;;7.80;99.90;;;;;;5053746;28;20172;-81
2023/02/11 02:40:29;;;;;;;4.73;2.67;;;7.80;99.90;;;;;;5052949;28;20214;-82
2023/02/11 02:42:56;;;;;;;10.33;1.80;;;7.80;99.90;;;;;;5071318;28;20176;-83
2023/02/11 02:45:22;;;;;;;7.70;4.50;;;7.80;99.90;;;;;;5053574;28;20220;-84
2023/02/11 02:47:48;;;;;;;7.87;3.90;;;7.80;99.90;;;;;;5053518;28;20604;-83
2023/02/11 02:50:16;;;;;;;3.87;1.70;;;7.80;99.90;;;;;;5053451;28;20184;-85
2023/02/11 02:52:59;;;;;;;4.80;3.43;;;7.80;99.90;;;;;;5053746;28;20227;-81
2023/02/11 02:55:49;;;;;;;3.33;2.03;;;7.80;99.90;;;;;;5053304;28;20201;-80
2023/02/11 02:58:18;;;;;;;2.53;2.10;;;7.80;99.90;;;;;;5053709;28;20197;-82
2023/02/11 03:01:17;;;;;;;3.03;2.17;;;7.80;99.90;;;;;;5053409;28;20526;-81
2023/02/11 03:04:13;;;;;;;7.03;2.63;;;7.90;99.90;;;;;;5070515;28;20258;-83
2023/02/11 03:06:57;;;;;;;4.30;3.03;;;7.90;99.90;;;;;;5070119;28;20199;-84
2023/02/11 03:09:38;;;;;;;1.47;1.37;;;7.90;99.90;;;;;;5070062;28;20268;-80
2023/02/11 03:12:06;;;;;;;3.37;2.57;;;7.90;99.90;;;;;;5070502;28;20170;-86
2023/02/11 03:14:34;;;;;;;2.67;2.47;;;7.90;99.90;;;;;;5052309;28;20200;-81
2023/02/11 03:17:04;;;;;;;6.03;2.70;;;7.90;99.90;;;;;;5070539;28;20205;-82
2023/02/11 03:19:34;;;;;;;1.90;1.80;;;7.90;99.90;;;;;;5070328;28;20688;-81
2023/02/11 03:22:04;;;;;;;8.03;3.63;;;7.90;99.90;;;;;;5052163;28;20246;-81
2023/02/11 03:24:36;;;;;;;4.70;2.53;;;7.90;99.90;;;;;;5069790;28;20238;-81
2023/02/11 03:27:09;;;;;;;3.27;2.07;;;7.90;99.90;;;;;;5052336;28;20639;-81
2023/02/11 03:29:44;;;;;;;2.93;2.63;;;7.90;99.90;;;;;;5052672;28;20725;-81
2023/02/11 03:32:21;;;;;;;2.50;2.33;;;7.90;99.90;;;;;;5070445;28;20184;-83
2023/02/11 03:35:14;;;;;;;6.03;3.57;;;7.90;99.90;;;;;;5052718;28;20165;-80
2023/02/11 03:37:49;;;;;;;4.37;3.87;;;7.90;99.90;;;;;;5052643;28;20181;-80
2023/02/11 03:40:20;;;;;;;1.73;1.57;;;7.90;99.90;;;;;;5052602;28;20169;-82
2023/02/11 03:42:55;;;;;;;6.87;3.80;;;7.90;99.90;;;;;;5070253;28;20174;-83
2023/02/11 03:45:23;;;;;;;11.33;3.33;;;7.90;99.90;;;;;;5070395;28;20173;-80
2023/02/11 03:48:00;;;;;;;3.93;3.33;;;8.00;99.90;;;;;;5053336;28;20197;-80
2023/02/11 03:50:28;;;;;;;2.10;1.97;;;7.90;99.90;;;;;;5069888;28;20173;-80
2023/02/11 03:52:59;;;;;;;2.90;2.30;;;7.90;99.90;;;;;;5070050;28;20781;-85
2023/02/11 03:55:26;;;;;;;3.43;3.17;;;7.90;99.90;;;;;;5052273;28;20236;-80
2023/02/11 03:57:52;;;;;;;3.80;3.10;;;8.00;99.90;;;;;;5052469;28;20264;-84
2023/02/11 04:00:18;;;;;;;3.67;2.07;;;8.00;99.90;;;;;;5035981;28;20267;-80
2023/02/11 04:02:44;;;;;;;5.73;3.23;;;8.00;99.90;;;;;;5019399;28;20209;-80
2023/02/11 04:05:15;;;;;;;2.37;2.17;;;8.00;99.90;;;;;;5052203;28;20181;-81
2023/02/11 04:07:41;;;;;;;6.87;4.43;;;8.00;99.90;;;;;;5070130;28;20193;-80
2023/02/11 04:10:07;;;;;;;6.67;3.57;;;8.00;99.90;;;;;;5035863;28;20204;-80
2023/02/11 04:12:33;;;;;;;6.90;1.83;;;8.00;99.90;;;;;;5069822;28;20192;-80
2023/02/11 04:14:59;;;;;;;4.10;2.63;;;8.00;99.90;;;;;;5051892;28;20233;-81
2023/02/11 04:17:24;;;;;;;7.43;2.70;;;8.00;99.90;;;;;;5035287;28;20731;-81
2023/02/11 04:19:50;;;;;;;8.10;3.43;;;8.10;99.90;;;;;;5035724;28;20178;-82
2023/02/11 04:22:16;;;;;;;1.17;1.17;;;8.00;99.90;;;;;;5035573;28;20200;-81
2023/02/11 04:24:42;;;;;;;23.97;3.43;;;8.10;99.90;;;;;;5035358;28;20181;-84
2023/02/11 04:27:09;;;;;;;7.60;2.83;;;8.10;99.90;;;;;;5035683;28;20284;-81
2023/02/11 04:29:34;;;;;;;6.73;2.97;;;8.10;99.90;;;;;;5051850;28;20182;-84
2023/02/11 04:32:00;;;;;;;2.57;2.27;;;8.10;99.90;;;;;;5052036;28;20189;-85
2023/02/11 04:34:27;;;;;;;5.33;2.90;;;8.10;99.90;;;;;;5035059;28;20545;-81
2023/02/11 04:36:55;;;;;;;5.13;2.13;;;8.10;99.90;;;;;;5035960;28;20220;-81
2023/02/11 04:39:21;;;;;;;6.00;2.70;;;8.10;99.90;;;;;;5051551;28;20246;-85
2023/02/11 04:41:46;;;;;;;2.07;1.77;;;8.10;99.90;;;;;;5069416;28;20189;-83
2023/02/11 04:44:12;;;;;;;5.07;3.33;;;8.10;99.90;;;;;;5018506;28;20181;-85
2023/02/11 04:46:38;;;;;;;2.47;2.27;;;8.10;99.90;;;;;;5069438;28;20621;-82
2023/02/11 04:49:04;;;;;;;2.77;2.53;;;8.10;99.90;;;;;;5051778;28;20177;-81
2023/02/11 04:51:30;;;;;;;4.90;3.67;;;8.10;99.90;;;;;;5051489;28;20662;-85
2023/02/11 04:53:56;;;;;;;6.43;4.27;;;8.10;99.90;;;;;;5018793;28;20177;-86
2023/02/11 04:56:22;;;;;;;3.93;3.03;;;8.10;99.90;;;;;;5035023;28;20206;-84
2023/02/11 04:58:47;;;;;;;4.10;2.37;;;8.10;99.90;;;;;;5035131;28;20186;-82
2023/02/11 05:01:15;;;;;;;2.57;2.27;;;8.10;99.90;;;;;;5051752;28;20675;-82
2023/02/11 05:03:41;;;;;;;4.50;2.40;;;8.10;99.90;;;;;;5054616;28;20421;-82
2023/02/11 05:06:08;;;;;;;3.20;2.67;;;8.10;99.90;;;;;;5055652;28;20190;-81
2023/02/11 05:08:34;;;;;;;3.27;2.90;;;8.10;99.90;;;;;;5073401;28;20185;-81
2023/02/11 05:11:01;;;;;;;4.07;3.53;;;8.10;99.90;;;;;;5038725;28;20188;-81
2023/02/11 05:13:27;;;;;;;4.37;2.77;;;8.10;99.90;;;;;;5038649;28;20655;-81
2023/02/11 05:15:54;;;;;;;8.00;3.60;;;8.10;99.90;;;;;;5051750;28;20229;-82
2023/02/11 05:18:20;;;;;;;1.70;1.60;;;8.00;99.90;;;;;;5051776;28;20209;-82
2023/02/11 05:20:46;;;;;;;5.77;2.97;;;8.00;99.90;;;;;;5051955;28;20220;-80
2023/02/11 05:23:11;;;;;;;3.50;3.13;;;8.10;99.90;;;;;;5018866;28;20174;-80
2023/02/11 05:25:37;;;;;;;5.90;4.53;;;8.00;99.90;;;;;;5018793;28;20186;-80
2023/02/11 05:28:04;;;;;;;4.43;3.00;;;8.00;99.90;;;;;;5051982;28;20695;-80
2023/02/11 05:30:30;;;;;;;2.70;2.50;;;8.00;99.90;;;;;;5051909;28;20197;-83
2023/02/11 05:32:56;;;;;;;3.80;2.33;;;8.00;99.90;;;;;;5051618;28;20225;-83
2023/02/11 05:35:22;;;;;;;4.43;3.93;;;7.90;99.90;;;;;;5051460;28;20252;-80
2023/02/11 05:37:47;;;;;;;6.20;3.67;;;7.90;99.90;;;;;;5035003;28;20663;-82
2023/02/11 05:40:14;;;;;;;4.47;4.07;;;7.90;99.90;;;;;;5051856;28;20589;-85
2023/02/11 05:42:39;;;;;;;3.13;2.37;;;7.90;99.90;;;;;;5051268;28;20182;-82
2023/02/11 05:45:06;;;;;;;4.30;3.47;;;7.80;99.90;;;;;;5052497;28;20177;-83
2023/02/11 05:47:32;;;;;;;6.37;4.13;;;7.80;99.90;;;;;;5051552;28;20194;-80
2023/02/11 05:49:58;;;;;;;7.57;5.47;;;7.80;99.90;;;;;;5034949;28;20631;-83
2023/02/11 05:52:24;;;;;;;4.97;3.83;;;7.80;99.90;;;;;;5034744;28;20184;-85
2023/02/11 05:54:50;;;;;;;10.43;3.43;;;7.80;99.90;;;;;;5034756;28;20235;-80
2023/02/11 05:57:16;;;;;;;5.10;3.47;;;7.80;99.90;;;;;;5051425;28;20178;-84
2023/02/11 05:59:42;;;;;;;3.77;3.00;;;7.80;99.90;;;;;;5051392;28;20201;-83
2023/02/11 06:02:08;;;;;;;4.43;3.47;;;7.80;99.90;;;;;;5051372;28;20190;-83
2023/02/11 06:04:35;;;;;;;3.60;3.13;;;7.80;99.90;;;;;;5051267;28;20240;-83
2023/02/11 06:07:01;;;;;;;4.37;3.97;;;7.70;99.90;;;;;;5052362;28;20267;-80
2023/02/11 06:09:27;;;;;;;6.53;2.73;;;7.70;99.90;;;;;;5051098;28;20174;-81
2023/02/11 06:11:52;;;;;;;10.40;4.13;;;7.60;99.90;;;;;;5018098;28;20212;-83
2023/02/11 06:14:18;;;;;;;1.13;1.13;;;7.60;99.90;;;;;;5049806;28;20690;-83
2023/02/11 06:16:44;;;;;;;4.60;2.93;;;7.70;99.90;;;;;;5033916;28;20257;-80
2023/02/11 06:19:11;;;;;;;4.40;2.43;;;7.70;99.90;;;;;;5050591;28;20693;-80
2023/02/11 06:21:38;;;;;;;8.30;3.30;;;7.70;99.90;;;;;;5050709;28;20230;-80
2023/02/11 06:24:04;;;;;;;4.67;3.87;;;7.60;99.90;;;;;;5050483;28;20786;-83
2023/02/11 06:26:30;;;;;;;5.77;3.17;;;7.70;99.90;;;;;;5017742;28;20643;-84
2023/02/11 06:28:59;;;;;;;7.73;4.83;;;7.60;99.90;;;;;;5033055;28;20182;-84
2023/02/11 06:31:25;;;;;;;5.03;3.13;;;7.60;99.90;;;;;;5050761;28;20190;-82
2023/02/11 06:33:53;;;;;;;6.00;3.17;;;7.60;99.90;;;;;;5051322;28;20213;-82
2023/02/11 06:36:21;;;;;;;4.10;2.17;;;7.60;99.90;;;;;;5034432;28;20210;-83
2023/02/11 06:38:47;;;;;;;7.67;2.77;;;7.60;99.90;;;;;;5050672;28;20220;-80
2023/02/11 06:41:15;;;;;;;1.77;1.63;;;7.60;99.90;;;;;;5033762;28;20193;-83
2023/02/11 06:43:41;;;;;;;4.93;4.13;;;7.60;99.90;;;;;;5051436;28;20170;-82
2023/02/11 06:46:08;;;;;;;5.80;3.03;;;7.60;99.90;;;;;;5033142;28;20186;-80
2023/02/11 06:48:34;;;;;;;11.97;3.03;;;7.50;99.90;;;;;;5050381;28;20734;-81
2023/02/11 06:51:04;;;;;;;4.80;3.60;;;7.50;99.90;;;;;;5048543;28;20221;-83
2023/02/11 06:53:34;;;;;;;5.27;3.07;;;7.50;99.90;;;;;;5031853;28;20182;-83
2023/02/11 06:56:11;;;;;;;6.47;2.03;;;7.50;99.90;;;;;;5049317;28;20213;-87
2023/02/11 06:58:37;;;;;;;5.20;3.03;;;7.50;99.90;;;;;;5047955;28;20662;-80
2023/02/11 07:01:08;;;;;;;4.90;4.00;;;7.50;99.90;;;;;;5031274;28;20659;-84
2023/02/11 07:03:35;;;;;;;2.97;2.60;;;7.50;99.90;;;;;;5048496;28;20169;-80
2023/02/11 07:06:03;;;;;;;2.53;2.33;;;7.50;99.90;;;;;;5048527;28;20640;-84
2023/02/11 07:08:29;;;;;;;3.00;2.80;;;7.50;99.90;;;;;;5033146;28;20438;-85
2023/02/11 07:10:55;;;;;;;10.97;3.20;;;7.50;99.90;;;;;;5032850;28;20754;-80
2023/02/11 07:13:20;;;;;;;3.97;3.67;;;7.50;99.90;;;;;;5049504;28;20186;-79
2023/02/11 07:15:46;;;;;;;14.83;3.03;;;7.60;99.90;;;;;;5032431;28;20760;-86
2023/02/11 07:18:12;;;;;;;4.00;1.50;;;7.60;99.90;;;;;;5048577;28;20221;-83
2023/02/11 07:20:38;;;;;;;5.23;3.40;;;7.60;99.90;;;;;;5048632;28;20184;-83
2023/02/11 07:23:04;;;;;;;2.13;1.97;;;7.60;99.90;;;;;;5047648;28;20182;-80
2023/02/11 07:25:30;;;;;;;4.63;3.83;;;7.60;99.90;;;;;;5030711;28;20190;-81
2023/02/11 07:27:56;;;;;;;6.50;2.40;;;7.60;99.90;;;;;;5047365;28;20655;-83
2023/02/11 07:30:21;;;;;;;2.13;1.97;;;7.60;99.90;;;;;;5030779;28;20240;-85
2023/02/11 07:32:48;;;;;;;5.90;4.97;;;7.70;99.90;;;;;;5030345;28;20185;-83
2023/02/11 07:35:14;;;;;;;4.07;3.03;;;7.70;99.90;;;;;;5030845;28;20241;-83
2023/02/11 07:37:40;;;;;;;4.63;1.80;;;7.70;99.90;;;;;;5049148;28;20182;-82
2023/02/11 07:40:07;;;;;;;3.97;3.57;;;7.70;99.90;;;;;;5050522;28;20181;-86
2023/02/11 07:42:34;;;;;;;7.03;3.73;;;7.70;99.90;;;;;;5049033;28;20174;-84
2023/02/11 07:44:59;;;;;;;3.27;2.20;;;7.70;99.90;;;;;;5050252;28;20201;-81
2023/02/11 07:47:25;;;;;;;2.07;1.97;;;7.70;99.90;;;;;;5049138;28;20187;-85
2023/02/11 07:49:51;;;;;;;5.17;2.77;;;7.80;99.90;;;;;;5032302;28;20178;-81
2023/02/11 07:52:17;;;;;;;3.10;2.43;;;7.80;99.90;;;;;;5050095;28;20232;-84
2023/02/11 07:54:43;;;;;;;2.37;2.17;;;7.80;99.90;;;;;;5048732;28;20193;-84
2023/02/11 07:57:08;;;;;;;6.07;3.47;;;7.80;99.90;;;;;;5032270;28;20221;-86
2023/02/11 07:59:34;;;;;;;14.87;3.47;;;7.90;99.90;;;;;;5031962;28;20178;-83
2023/02/11 08:02:00;;;;;;;9.70;3.30;;;7.90;99.90;;;;;;5048945;28;20277;-83
2023/02/11 08:04:25;;;;;;;4.23;1.63;;;7.90;99.90;;;;;;5048621;28;20562;-83
2023/02/11 08:06:53;;;;;;;4.37;2.37;;;7.90;99.90;;;;;;5032234;28;20196;-81
2023/02/11 08:09:19;;;;;;;6.60;2.60;;;8.00;99.90;;;;;;5032264;28;20218;-82
2023/02/11 08:11:44;;;;;;;2.57;2.33;;;8.00;99.90;;;;;;5048958;28;20206;-86
2023/02/11 08:14:11;;;;;;;7.87;1.90;;;8.10;99.90;;;;;;5048693;28;20269;-80
2023/02/11 08:16:37;;;;;;;2.60;2.33;;;8.20;99.90;;;;;;5065859;28;20240;-85
2023/02/11 08:19:13;;;;;;;9.80;4.57;;;8.20;99.90;;;;;;5051767;28;20272;-81
2023/02/11 08:21:39;;;;;;;8.23;2.13;;;8.20;99.90;;;;;;5051507;28;20718;-81
2023/02/11 08:24:06;;;;;;;7.57;3.00;;;8.30;99.90;;;;;;5051654;28;20264;-84
2023/02/11 08:26:33;;;;;;;7.40;1.73;;;8.30;99.90;;;;;;5051765;28;20276;-86
2023/02/11 08:29:01;;;;;;;10.37;3.00;;;8.30;99.90;;;;;;5069417;28;20186;-81
2023/02/11 08:31:32;;;;;;;17.77;2.47;;;8.30;99.90;;;;;;5052141;28;20185;-84
2023/02/11 08:33:58;;;;;;;6.10;3.67;;;8.30;99.90;;;;;;5069717;28;20177;-82
2023/02/11 08:36:27;;;;;;;8.50;2.87;;;8.40;99.90;;;;;;5069588;28;20251;-81
2023/02/11 08:39:06;;;;;;;5.67;3.47;;;8.30;99.90;;;;;;5055094;28;20173;-81
2023/02/11 08:41:33;;;;;;;1.13;1.13;;;8.40;99.90;;;;;;5055671;28;20181;-85
2023/02/11 08:43:59;;;;;;;4.13;2.00;;;8.40;99.90;;;;;;5039482;28;20178;-84
2023/02/11 08:46:26;;;;;;;2.73;2.17;;;8.50;99.90;;;;;;5073615;28;20188;-83
2023/02/11 08:48:52;;;;;;;10.80;2.20;;;8.50;99.90;;;;;;5055760;28;20212;-81
2023/02/11 08:51:23;;;;;;;4.73;2.67;;;8.60;99.90;;;;;;5073524;28;20223;-81
2023/02/11 08:53:50;;;;;;;9.20;3.43;;;8.60;99.90;;;;;;5073369;28;20208;-80
2023/02/11 08:56:19;;;;;;;13.37;2.67;;;8.70;99.90;;;;;;5055542;28;20220;-83
2023/02/11 08:58:46;;;;;;;1.67;1.57;;;8.80;99.90;;;;;;5073419;28;20177;-82
2023/02/11 09:01:18;;;;;;;6.03;3.53;;;8.80;99.90;;;;;;5055631;28;20181;-81
2023/02/11 09:03:44;;;;;;;9.87;2.93;;;8.90;99.90;;;;;;5055813;28;20169;-80
2023/02/11 09:06:11;;;;;;;2.50;1.87;;;8.90;99.90;;;;;;5073104;28;20661;-80
2023/02/11 09:08:39;;;;;;;3.07;1.53;;;8.90;99.90;;;;;;5039146;28;20188;-83
2023/02/11 09:11:06;;;;;;;3.50;3.20;;;8.90;99.90;;;;;;5055233;28;20178;-80
2023/02/11 09:13:32;;;;;;;5.30;2.30;;;8.90;99.90;;;;;;5054921;28;20209;-81
2023/02/11 09:15:59;;;;;;;4.63;3.03;;;8.90;99.90;;;;;;5055019;28;20239;-80
2023/02/11 09:18:25;;;;;;;5.43;2.17;;;8.90;99.90;;;;;;5054976;28;20185;-81
2023/02/11 09:20:50;;;;;;;6.57;2.17;;;9.00;99.90;;;;;;5072446;28;20546;-80
2023/02/11 09:23:16;;;;;;;6.37;2.63;;;9.00;99.90;;;;;;5038033;28;20239;-81
2023/02/11 09:25:42;;;;;;;10.33;3.23;;;9.00;99.90;;;;;;5054850;28;20189;-80
2023/02/11 09:28:08;;;;;;;4.07;2.60;;;9.00;99.90;;;;;;5037997;28;20854;-80
2023/02/11 09:30:35;;;;;;;2.63;1.57;;;9.00;99.90;;;;;;5072001;28;20186;-80
2023/02/11 09:33:02;;;;;;;2.43;1.33;;;9.10;99.90;;;;;;5053747;28;20203;-80
2023/02/11 09:35:28;;;;;;;1.83;1.47;;;9.20;99.90;;;;;;5053647;28;20232;-82
2023/02/11 09:37:54;;;;;;;1.70;1.53;;;9.20;99.90;;;;;;5071034;28;20188;-80
2023/02/11 09:40:20;;;;;;;1.07;1.07;;;9.20;99.90;;;;;;5037463;28;20336;-80
2023/02/11 09:42:51;;;;;;;4.10;1.50;;;9.20;99.90;;;;;;5071707;28;20185;-80
2023/02/11 09:45:26;;;;;;;5.40;2.10;;;9.20;99.90;;;;;;5054104;28;20189;-81
2023/02/11 09:47:57;;;;;;;6.10;2.83;;;9.30;99.90;;;;;;5053818;28;20239;-79
2023/02/11 09:50:41;;;;;;;8.33;1.47;;;9.40;99.90;;;;;;5054025;28;20197;-80
2023/02/11 09:53:12;;;;;;;1.10;1.00;;;9.50;99.90;;;;;;5054027;28;20174;-81
2023/02/11 09:55:45;;;;;;;2.43;2.23;;;9.60;99.90;;;;;;5070867;28;20258;-83
2023/02/11 09:58:49;;;;;;;1.53;1.43;;;9.70;99.90;;;;;;5071725;28;20234;-80
2023/02/11 10:01:34;;;;;;;1.37;1.27;;;9.80;99.90;;;;;;5049530;28;20200;-79
2023/02/11 10:04:45;;;;;;;8.93;3.10;;;9.90;99.90;;;;;;5071915;28;20167;-80
2023/02/11 10:07:40;;;;;;;2.00;1.40;;;9.90;99.90;;;;;;5053771;28;20173;-81
2023/02/11 10:10:19;;;;;;;1.67;1.57;;;9.80;99.90;;;;;;5072005;28;20213;-81
2023/02/11 10:12:56;;;;;;;2.30;1.90;;;9.80;99.90;;;;;;5071932;28;20170;-81
2023/02/11 10:15:48;;;;;;;2.20;1.03;;;9.80;99.90;;;;;;5071577;28;20290;-83
2023/02/11 10:18:49;;;;;;;7.73;1.27;;;9.90;99.90;;;;;;5071443;28;20337;-79
2023/02/11 10:21:26;;;;;;;1.33;0.90;;;9.90;99.90;;;;;;5053254;28;20264;-79
2023/02/11 10:23:58;;;;;;;3.03;1.10;;;9.90;99.90;;;;;;5053105;28;20189;-83
2023/02/11 10:26:28;;;;;;;4.63;1.37;;;9.90;99.90;;;;;;5053284;28;20526;-81
2023/02/11 10:28:55;;;;;;;1.80;1.70;;;9.90;99.90;;;;;;5071085;28;20208;-83
2023/02/11 10:31:32;;;;;;;2.93;2.10;;;10.00;99.90;;;;;;5037076;28;20181;-80
2023/02/11 10:34:09;;;;;;;3.80;1.47;;;10.00;99.90;;;;;;5070974;28;20268;-80
2023/02/11 10:36:43;;;;;;;1.30;1.20;;;10.10;99.90;;;;;;5070463;28;20204;-80
2023/02/11 10:39:18;;;;;;;1.33;0.87;;;10.20;99.90;;;;;;5053153;28;20181;-81
2023/02/11 10:41:53;;;;;;;1.50;1.07;;;10.10;99.90;;;;;;5070789;28;20165;-85
2023/02/11 10:44:27;;;;;;;7.20;1.83;;;10.10;99.90;;;;;;5053136;28;20526;-80
2023/02/11 10:46:55;;;;;;;1.60;1.50;;;10.00;99.90;;;;;;5070983;28;20204;-80
2023/02/11 10:49:42;;;;;;;0.83;0.83;;;10.10;99.90;;;;;;5070774;28;20762;-81
2023/02/11 10:52:17;;;;;;;1.50;1.37;;;10.10;99.90;;;;;;5053200;28;20219;-81
2023/02/11 10:55:01;;;;;;;2.73;2.03;;;9.90;99.90;;;;;;5052280;28;20177;-80
2023/02/11 10:57:36;;;;;;;4.13;1.97;;;10.00;99.90;;;;;;5053036;28;20548;-80
2023/02/11 11:00:35;;;;;;;4.70;1.53;;;10.00;99.90;;;;;;5051993;28;20637;-79
2023/02/11 11:03:02;;;;;;;0.40;0.40;;;10.00;99.90;;;;;;5052162;28;20730;-82
2023/02/11 11:05:29;;;;;;;1.70;1.57;;;10.00;99.90;;;;;;5052045;28;20184;-80
2023/02/11 11:08:01;;;;;;;1.87;0.83;;;10.10;99.90;;;;;;5052184;28;20185;-80
2023/02/11 11:10:42;;;;;;;3.70;1.37;;;10.00;99.90;;;;;;5069464;28;20169;-79
2023/02/11 11:13:23;;;;;;;0.57;0.57;;;10.20;99.90;;;;;;5069381;28;20162;-80
2023/02/11 11:16:05;;;;;;;2.20;1.80;;;10.30;99.90;;;;;;5068875;28;20766;-80
2023/02/11 11:18:31;;;;;;;1.80;1.33;;;10.30;99.90;;;;;;5051750;28;20181;-80
2023/02/11 11:21:20;;;;;;;7.10;2.07;;;10.40;99.90;;;;;;5034917;28;20179;-83
2023/02/11 11:23:53;;;;;;;1.17;1.07;;;10.50;99.90;;;;;;5037487;28;20228;-83
2023/02/11 11:26:24;;;;;;;0.20;0.20;;;10.60;99.90;;;;;;5052383;28;20165;-79
2023/02/11 11:29:07;;;;;;;5.97;0.60;;;10.60;99.90;;;;;;5051832;28;20178;-83
2023/02/11 11:31:37;;;;;;;0.77;0.77;;;10.60;99.90;;;;;;5052007;28;20158;-82
2023/02/11 11:34:28;;;;;;;0.43;0.43;;;10.60;99.90;;;;;;5069413;28;20180;-79
2023/02/11 11:36:56;;;;;;;4.67;1.40;;;10.70;99.90;;;;;;5051222;28;20205;-80
2023/02/11 11:39:24;;;;;;;2.67;2.00;;;10.70;99.90;;;;;;5051500;28;20321;-79
2023/02/11 11:41:59;;;;;;;1.60;1.40;;;10.70;99.90;;;;;;5068364;28;20181;-80
2023/02/11 11:44:33;;;;;;;4.03;0.90;;;10.70;99.90;;;;;;5034379;28;20661;-84
2023/02/11 11:47:10;;;;;;;5.80;1.23;;;10.60;99.90;;;;;;5051272;28;20208;-80
2023/02/11 11:49:49;;;;;;;0.97;0.80;;;10.50;99.90;;;;;;5069036;28;20177;-83
2023/02/11 11:52:40;;;;;;;0.37;0.37;;;10.50;99.90;;;;;;5069030;28;20166;-81
2023/02/11 11:55:16;;;;;;;0.90;0.90;;;10.50;99.90;;;;;;5067598;28;20215;-84
2023/02/11 11:57:43;;;;;;;1.40;1.10;;;10.50;99.90;;;;;;5069008;28;20169;-82
2023/02/11 12:00:25;;;;;;;3.27;2.43;;;10.50;99.90;;;;;;5069410;28;20189;-80
2023/02/11 12:03:10;;;;;;;4.07;3.87;;;10.50;99.90;;;;;;5069697;28;20161;-81
2023/02/11 12:06:14;;;;;;;1.57;0.77;;;10.50;99.90;;;;;;5051813;28;20169;-82
2023/02/11 12:09:10;;;;;;;0.80;0.80;;;10.60;99.90;;;;;;5031154;28;20658;-80
2023/02/11 12:11:42;;;;;;;2.63;1.40;;;10.70;99.90;;;;;;5051017;28;20177;-83
2023/02/11 12:14:40;;;;;;;1.30;0.90;;;10.70;99.90;;;;;;5069077;28;20181;-85
2023/02/11 12:17:36;;;;;;;7.70;1.57;;;10.60;99.90;;;;;;5069266;28;20244;-80
2023/02/11 12:20:32;;;;;;;6.73;1.03;;;10.60;99.90;;;;;;5051670;28;20848;-81
2023/02/11 12:23:00;;;;;;;8.50;1.80;;;10.60;99.90;;;;;;4964863;28;20195;-82
2023/02/11 12:25:37;;;;;;;3.43;1.47;;;10.60;99.90;;;;;;5069931;28;20639;-81
2023/02/11 12:28:15;;;;;;;1.37;1.30;;;10.60;99.90;;;;;;5069697;28;20785;-81
2023/02/11 12:31:05;;;;;;;4.83;1.10;;;10.60;99.90;;;;;;5052031;28;20284;-80
2023/02/11 12:33:39;;;;;;;0.47;0.40;;;10.60;99.90;;;;;;5069665;28;20771;-80
2023/02/11 12:36:53;;;;;;;1.13;0.60;;;10.60;99.90;;;;;;5069670;28;20197;-80
2023/02/11 12:39:18;;;;;;;0.63;0.50;;;10.60;99.90;;;;;;5027942;28;20185;-83
2023/02/11 12:44:44;;;;;;;6.70;0.90;;;10.40;99.90;;;;;;5069163;28;20178;-80
2023/02/11 12:47:33;;;;;;;3.97;1.70;;;10.30;99.90;;;;;;5051412;28;20239;-80
2023/02/11 12:50:20;;;;;;;1.63;1.53;;;10.30;99.90;;;;;;5069422;28;20166;-80
2023/02/11 12:52:55;;;;;;;5.40;1.50;;;10.10;99.90;;;;;;5051452;28;20634;-84
2023/02/11 12:55:27;;;;;;;5.40;1.57;;;10.20;99.90;;;;;;5051369;28;20177;-81
2023/02/11 12:57:55;;;;;;;2.63;0.57;;;10.20;99.90;;;;;;5051220;28;20178;-80
2023/02/11 13:00:47;;;;;;;1.43;1.33;;;10.10;99.90;;;;;;5069206;28;20688;-82
2023/02/11 13:03:22;;;;;;;6.40;1.70;;;10.20;99.90;;;;;;5051473;28;20170;-81
2023/02/11 13:06:06;;;;;;;2.20;1.13;;;10.10;99.90;;;;;;5068805;28;20181;-85
2023/02/11 13:08:35;;;;;;;3.00;1.07;;;10.00;99.90;;;;;;5051361;28;20162;-82
2023/02/11 13:11:11;;;;;;;0.47;0.47;;;10.00;99.90;;;;;;5050906;28;20174;-81
2023/02/11 13:13:41;;;;;;;3.70;1.03;;;10.00;99.90;;;;;;5049359;28;20428;-83
2023/02/11 13:16:23;;;;;;;1.47;0.90;;;10.00;99.90;;;;;;5067186;28;20229;-86
2023/02/11 13:19:11;;;;;;;1.70;0.90;;;9.90;99.90;;;;;;5049471;28;20188;-83
2023/02/11 13:21:49;;;;;;;0.27;0.27;;;10.00;99.90;;;;;;5067959;28;20217;-81
2023/02/11 13:24:19;;;;;;;5.20;1.03;;;10.00;99.90;;;;;;5051974;28;20641;-80